Time;durP1;ratioP1;P1;durP2;ratioP2;P2;SDS_P1;SDS_P2;PMS_P1;PMS_P2;Temp;Humidity;BMP_temperature;BMP_pressure;BME280_temperature;BME280_humidity;BME280_pressure;Samples;Min_cycle;Max_cycle;Signal;HPM_P1;HPM_P2
2023/06/13 00:02:07;;;;;;;;;17.33;17.33;;;;;24.91;56.62;100627.88;4952916;28;47516;-69
2023/06/13 00:04:33;;;;;;;;;20.67;17.67;;;;;24.90;56.53;100631.50;4940320;28;45306;-69
2023/06/13 00:06:59;;;;;;;;;16.33;16.00;;;;;24.86;56.32;100638.00;4954885;28;45342;-69
2023/06/13 00:09:26;;;;;;;;;20.00;14.67;;;;;24.85;56.26;100639.81;4939541;28;45453;-68
2023/06/13 00:11:52;;;;;;;;;18.00;17.33;;;;;24.79;56.20;100637.50;4949907;28;46940;-70
2023/06/13 00:14:19;;;;;;;;;19.67;17.67;;;;;24.80;56.00;100636.56;4934071;28;45419;-69
2023/06/13 00:16:48;;;;;;;;;23.00;17.33;;;;;24.76;56.39;100629.66;4935698;28;45668;-69
2023/06/13 00:19:14;;;;;;;;;17.00;17.00;;;;;24.72;56.27;100628.94;4935820;28;45378;-69
2023/06/13 00:21:41;;;;;;;;;16.67;13.33;;;;;24.72;56.35;100628.94;4935282;28;45313;-70
2023/06/13 00:24:07;;;;;;;;;21.67;16.33;;;;;24.73;56.29;100630.69;4935178;28;45956;-69
2023/06/13 00:26:32;;;;;;;;;22.67;18.33;;;;;24.64;56.00;100620.53;4935478;28;45496;-69
2023/06/13 00:28:58;;;;;;;;;20.33;16.00;;;;;24.70;56.03;100630.00;4935807;28;45396;-69
2023/06/13 00:31:28;;;;;;;;;18.33;16.33;;;;;24.50;56.32;100601.72;4935429;28;45476;-69
2023/06/13 00:33:58;;;;;;;;;15.33;12.00;;;;;24.63;56.25;100624.16;4938101;28;45329;-71
2023/06/13 00:36:25;;;;;;;;;21.67;19.33;;;;;24.61;56.30;100617.16;4938005;28;45437;-70
2023/06/13 00:38:56;;;;;;;;;19.33;17.00;;;;;24.57;56.39;100615.63;4950741;28;45573;-71
2023/06/13 00:41:22;;;;;;;;;22.00;17.33;;;;;24.59;56.23;100619.06;4936502;28;46147;-71
2023/06/13 00:43:48;;;;;;;;;21.00;17.00;;;;;24.54;56.22;100617.53;4936823;28;45702;-68
2023/06/13 00:46:17;;;;;;;;;21.67;19.00;;;;;24.54;56.21;100609.47;4932337;28;45409;-69
2023/06/13 00:48:44;;;;;;;;;26.67;22.00;;;;;24.53;56.53;100609.56;4933792;28;45838;-69
2023/06/13 00:51:14;;;;;;;;;25.33;24.00;;;;;24.48;55.87;100611.66;4934767;28;45996;-70
2023/06/13 00:53:41;;;;;;;;;23.33;22.00;;;;;24.45;55.81;100604.63;4933547;28;45551;-69
2023/06/13 00:56:07;;;;;;;;;22.00;16.67;;;;;24.46;55.77;100609.06;4936655;28;45420;-71
2023/06/13 00:58:34;;;;;;;;;16.33;16.00;;;;;24.37;56.28;100601.56;4939599;28;45451;-69
2023/06/13 01:01:02;;;;;;;;;16.67;16.33;;;;;24.44;55.89;100607.38;4934463;28;45513;-68
2023/06/13 01:03:29;;;;;;;;;17.00;15.67;;;;;24.42;55.82;100609.31;4933940;28;45882;-69
2023/06/13 01:05:56;;;;;;;;;19.67;18.33;;;;;24.40;56.34;100606.72;4937999;28;45400;-70
2023/06/13 01:08:25;;;;;;;;;19.33;18.67;;;;;24.36;55.75;100601.63;4933621;28;45463;-70
2023/06/13 01:11:16;;;;;;;;;18.33;17.33;;;;;24.32;55.62;100598.25;4934234;28;46698;-70
2023/06/13 01:13:51;;;;;;;;;19.67;16.67;;;;;24.34;55.90;100607.06;4935105;28;45346;-69
2023/06/13 01:16:29;;;;;;;;;18.00;16.00;;;;;24.34;55.99;100613.28;4933754;28;45707;-70
2023/06/13 01:18:58;;;;;;;;;17.67;16.33;;;;;24.21;55.96;100590.84;4932414;28;45820;-70
2023/06/13 01:21:27;;;;;;;;;19.00;18.33;;;;;24.23;56.47;100590.78;4934195;28;46329;-71
2023/06/13 01:24:07;;;;;;;;;19.00;18.00;;;;;24.24;55.95;100592.50;4933231;28;45377;-70
2023/06/13 01:26:56;;;;;;;;;20.00;16.67;;;;;24.19;56.27;100597.25;4949657;28;45364;-71
2023/06/13 01:29:23;;;;;;;;;22.67;19.33;;;;;24.20;56.10;100596.28;4933741;28;45249;-70
2023/06/13 01:31:56;;;;;;;;;23.00;18.33;;;;;24.18;56.04;100600.84;4934508;28;46068;-68
2023/06/13 01:34:24;;;;;;;;;23.33;19.33;;;;;24.17;56.22;100596.47;4933145;28;45406;-70
2023/06/13 01:36:50;;;;;;;;;19.33;18.00;;;;;23.86;56.14;100550.91;4933520;28;45684;-68
2023/06/13 01:39:16;;;;;;;;;19.33;18.33;;;;;24.06;56.12;100581.88;4934352;28;45483;-68
2023/06/13 01:41:42;;;;;;;;;22.67;19.67;;;;;24.10;56.18;100593.28;4934101;28;45944;-69
2023/06/13 01:44:15;;;;;;;;;17.67;14.33;;;;;24.05;55.99;100590.84;4936980;28;45492;-70
2023/06/13 01:47:14;;;;;;;;;19.67;17.67;;;;;24.11;56.35;100595.00;4938855;28;45551;-71
2023/06/13 01:50:09;;;;;;;;;17.33;16.33;;;;;23.94;56.36;100566.50;4939221;28;45523;-68
2023/06/13 01:52:54;;;;;;;;;15.67;14.67;;;;;24.07;56.26;100594.31;4938443;28;46270;-71
2023/06/13 01:55:30;;;;;;;;;17.67;17.33;;;;;24.04;56.54;100599.84;4938511;28;45435;-69
2023/06/13 01:58:05;;;;;;;;;21.33;16.33;;;;;23.97;56.32;100587.75;4939646;28;46026;-70
2023/06/13 02:00:32;;;;;;;;;20.67;16.00;;;;;24.01;56.25;100593.78;4942217;28;45449;-70
2023/06/13 02:03:00;;;;;;;;;17.67;16.00;;;;;24.00;55.64;100598.28;4941823;28;46147;-69
2023/06/13 02:05:26;;;;;;;;;22.33;18.67;;;;;23.93;56.37;100586.19;4941939;28;45484;-70
2023/06/13 02:07:53;;;;;;;;;19.67;16.33;;;;;23.94;56.36;100587.91;4938450;28;45462;-70
2023/06/13 02:10:19;;;;;;;;;22.00;17.33;;;;;23.89;56.51;100571.25;4952259;28;45550;-69
2023/06/13 02:12:44;;;;;;;;;17.33;16.00;;;;;23.92;56.36;100581.81;4952293;28;47095;-69
2023/06/13 02:15:10;;;;;;;;;18.33;16.33;;;;;23.86;56.59;100568.78;4939176;28;45404;-69
2023/06/13 02:17:36;;;;;;;;;18.00;18.00;;;;;23.87;56.42;100573.16;4941822;28;45357;-70
2023/06/13 02:20:03;;;;;;;;;17.00;15.00;;;;;23.85;56.76;100573.25;4940890;28;45335;-68
2023/06/13 02:22:29;;;;;;;;;23.00;21.67;;;;;23.86;56.61;100580.31;4941420;28;46216;-68
2023/06/13 02:24:55;;;;;;;;;17.33;16.33;;;;;23.78;56.40;100565.66;4940349;28;45404;-69
2023/06/13 02:27:20;;;;;;;;;17.67;15.33;;;;;23.76;56.37;100578.25;4940247;28;45442;-69
2023/06/13 02:29:46;;;;;;;;;18.00;18.00;;;;;23.80;56.61;100588.72;4941946;28;45426;-69
2023/06/13 02:32:11;;;;;;;;;20.00;16.00;;;;;23.78;56.69;100581.72;4941346;28;45351;-70
2023/06/13 02:34:37;;;;;;;;;18.00;16.67;;;;;23.78;56.42;100582.56;4938460;28;45394;-68
2023/06/13 02:37:03;;;;;;;;;19.33;19.33;;;;;23.59;56.37;100547.09;4937034;28;45464;-68
2023/06/13 02:39:29;;;;;;;;;21.00;17.33;;;;;23.76;56.72;100576.44;4941723;28;45494;-68
2023/06/13 02:41:54;;;;;;;;;17.00;17.00;;;;;23.73;56.60;100573.03;4941451;28;45941;-69
2023/06/13 02:44:20;;;;;;;;;18.33;16.67;;;;;23.72;56.68;100577.53;4939550;28;45524;-68
2023/06/13 02:46:45;;;;;;;;;19.33;17.00;;;;;23.64;56.54;100558.38;4937056;28;45402;-68
2023/06/13 02:49:11;;;;;;;;;20.67;17.00;;;;;23.66;56.89;100561.84;4938611;28;45331;-70
2023/06/13 02:51:36;;;;;;;;;20.00;18.67;;;;;23.60;56.94;100554.16;4937408;28;45585;-69
2023/06/13 02:54:02;;;;;;;;;19.33;17.67;;;;;23.61;56.87;100562.09;4936678;28;45354;-69
2023/06/13 02:56:29;;;;;;;;;20.67;17.67;;;;;23.67;57.05;100560.88;4937081;28;45623;-69
2023/06/13 02:58:54;;;;;;;;;22.00;16.67;;;;;23.67;56.85;100561.72;4937052;28;45353;-68
2023/06/13 03:01:20;;;;;;;;;15.67;15.33;;;;;23.62;56.89;100555.78;4935124;28;46830;-70
2023/06/13 03:03:47;;;;;;;;;16.67;15.33;;;;;23.61;56.95;100563.88;4935275;28;45474;-69
2023/06/13 03:06:17;;;;;;;;;17.33;16.67;;;;;23.64;56.99;100569.94;4936983;28;45385;-68
2023/06/13 03:08:43;;;;;;;;;18.33;15.33;;;;;23.63;56.57;100570.91;4950673;28;45669;-69
2023/06/13 03:11:09;;;;;;;;;18.00;15.33;;;;;23.53;57.02;100561.63;4934626;28;47663;-69
2023/06/13 03:13:35;;;;;;;;;19.00;17.33;;;;;23.58;57.06;100580.09;4936799;28;45523;-69
2023/06/13 03:16:03;;;;;;;;;24.67;20.00;;;;;23.48;56.84;100563.69;4935659;28;45798;-69
2023/06/13 03:18:28;;;;;;;;;19.33;17.00;;;;;23.50;56.52;100568.00;4939784;28;45472;-68
2023/06/13 03:20:54;;;;;;;;;22.33;18.33;;;;;23.53;56.91;100585.69;4938895;28;47567;-69
2023/06/13 03:23:20;;;;;;;;;15.67;15.67;;;;;23.53;56.99;100576.81;4935470;28;45706;-68
2023/06/13 03:25:46;;;;;;;;;13.33;13.33;;;;;23.42;56.94;100564.00;4936274;28;45935;-68
2023/06/13 03:28:12;;;;;;;;;18.67;14.67;;;;;23.50;56.94;100576.03;4938543;28;45544;-69
2023/06/13 03:30:38;;;;;;;;;17.00;17.00;;;;;23.48;57.33;100577.91;4938070;28;46037;-69
2023/06/13 03:33:03;;;;;;;;;17.00;15.33;;;;;23.42;57.96;100564.91;4936178;28;45523;-70
2023/06/13 03:35:29;;;;;;;;;24.33;22.67;;;;;23.41;58.10;100570.31;4939840;28;45392;-68
2023/06/13 03:37:55;;;;;;;;;24.00;22.00;;;;;23.37;59.12;100563.41;4938949;28;45587;-70
2023/06/13 03:40:21;;;;;;;;;14.67;14.67;;;;;23.52;58.98;100572.44;4940081;28;45507;-70
2023/06/13 03:42:46;;;;;;;;;19.33;17.33;;;;;23.59;58.27;100566.66;4952984;28;45432;-70
2023/06/13 03:45:15;;;;;;;;;18.00;15.33;;;;;23.53;57.42;100550.94;4935871;28;45484;-69
2023/06/13 03:47:41;;;;;;;;;15.33;15.33;;;;;23.67;57.67;100568.91;4939733;28;45476;-68
2023/06/13 03:50:07;;;;;;;;;16.67;16.33;;;;;23.69;57.03;100570.53;4936278;28;45434;-68
2023/06/13 03:52:34;;;;;;;;;19.33;18.33;;;;;23.66;57.41;100564.50;4934156;28;45520;-69
2023/06/13 03:55:00;;;;;;;;;20.00;18.00;;;;;23.70;57.01;100569.59;4935424;28;45464;-69
2023/06/13 03:57:26;;;;;;;;;13.67;12.67;;;;;23.75;56.35;100576.53;4936199;28;45487;-69
2023/06/13 03:59:52;;;;;;;;;18.00;17.33;;;;;23.76;57.11;100575.59;4935682;28;45652;-69
2023/06/13 04:02:19;;;;;;;;;18.67;17.00;;;;;23.75;56.44;100574.69;4950729;28;45504;-69
2023/06/13 04:04:46;;;;;;;;;18.00;18.00;;;;;23.70;56.32;100569.59;4947080;28;45490;-69
2023/06/13 04:07:12;;;;;;;;;16.33;15.67;;;;;23.70;56.60;100560.69;4916206;28;45597;-69
2023/06/13 04:09:38;;;;;;;;;21.00;17.67;;;;;23.76;56.63;100570.25;4936809;28;47530;-68
2023/06/13 04:12:05;;;;;;;;;19.67;17.33;;;;;23.77;56.60;100569.28;4937582;28;45596;-69
2023/06/13 04:14:32;;;;;;;;;19.33;18.00;;;;;23.78;56.12;100577.22;4935245;28;45397;-69
2023/06/13 04:16:59;;;;;;;;;19.33;17.33;;;;;23.78;56.39;100573.69;4936289;28;45455;-68
2023/06/13 04:19:25;;;;;;;;;22.67;19.00;;;;;23.77;56.09;100575.47;4935408;28;45592;-69
2023/06/13 04:21:51;;;;;;;;;16.67;14.67;;;;;23.80;56.62;100578.00;4936761;28;46118;-70
2023/06/13 04:24:17;;;;;;;;;20.00;18.33;;;;;23.78;55.85;100576.38;4953120;28;45451;-69
2023/06/13 04:26:46;;;;;;;;;19.00;18.00;;;;;23.81;56.44;100582.41;4935681;28;45332;-70
2023/06/13 04:29:15;;;;;;;;;22.33;17.00;;;;;23.71;56.53;100563.28;4935199;28;45507;-69
2023/06/13 04:31:41;;;;;;;;;18.00;16.67;;;;;23.80;56.14;100574.44;4934861;28;45321;-69
2023/06/13 04:34:08;;;;;;;;;18.67;18.67;;;;;23.82;56.09;100584.09;4950661;28;45474;-70
2023/06/13 04:36:35;;;;;;;;;19.00;17.33;;;;;23.84;56.02;100587.56;4950340;28;45321;-68
2023/06/13 04:39:06;;;;;;;;;19.00;15.00;;;;;23.87;55.76;100583.84;4935157;28;45545;-70
2023/06/13 04:41:35;;;;;;;;;18.33;16.33;;;;;23.93;55.76;100586.19;4936155;28;46056;-69
2023/06/13 04:44:10;;;;;;;;;19.00;17.00;;;;;23.95;55.88;100588.78;4935715;28;45503;-72
2023/06/13 04:46:41;;;;;;;;;16.00;15.67;;;;;23.97;55.86;100593.09;4935556;28;45464;-70
2023/06/13 04:49:06;;;;;;;;;20.00;17.67;;;;;23.98;55.61;100593.97;4951446;28;45643;-70
2023/06/13 04:51:33;;;;;;;;;23.00;18.67;;;;;23.92;55.83;100581.81;4939376;28;45368;-70
2023/06/13 04:53:59;;;;;;;;;18.67;18.33;;;;;23.93;55.36;100591.53;4951544;28;45510;-70
2023/06/13 04:56:27;;;;;;;;;21.67;18.67;;;;;24.02;55.51;100593.72;4935659;28;45674;-71
2023/06/13 04:58:53;;;;;;;;;22.00;19.00;;;;;24.05;55.48;100598.88;4934927;28;45426;-70
2023/06/13 05:01:26;;;;;;;;;19.67;17.00;;;;;24.02;55.72;100590.19;4950077;28;45565;-70
2023/06/13 05:03:53;;;;;;;;;19.00;17.67;;;;;24.10;55.82;100598.63;4951212;28;45472;-69
2023/06/13 05:06:37;;;;;;;;;18.67;18.00;;;;;24.17;55.24;100593.78;4939758;28;45364;-70
2023/06/13 05:09:13;;;;;;;;;20.67;18.33;;;;;24.21;55.33;100592.66;4939164;28;46190;-69
2023/06/13 05:11:40;;;;;;;;;21.33;16.67;;;;;24.25;55.29;100595.09;4949904;28;45488;-68
2023/06/13 05:14:06;;;;;;;;;18.33;17.67;;;;;24.26;54.90;100595.94;4934908;28;45373;-70
2023/06/13 05:16:31;;;;;;;;;22.00;16.67;;;;;24.33;54.46;100597.31;4935913;28;45622;-71
2023/06/13 05:19:05;;;;;;;;;25.33;19.00;;;;;;;;4935003;28;46969;-70
2023/06/13 05:21:31;;;;;;;;;20.33;19.33;;;;;24.30;54.79;100594.81;4934552;28;45366;-69
2023/06/13 05:24:09;;;;;;;;;21.67;17.33;;;;;24.29;54.92;100587.72;4953525;28;45504;-69
2023/06/13 05:26:35;;;;;;;;;20.00;18.33;;;;;24.44;54.44;100597.56;4949946;28;45642;-69
2023/06/13 05:29:04;;;;;;;;;18.33;16.33;;;;;24.50;54.47;100597.22;4934285;28;46108;-69
2023/06/13 05:31:31;;;;;;;;;20.33;19.33;;;;;24.48;53.51;100588.41;4949278;28;45784;-69
2023/06/13 05:33:56;;;;;;;;;21.33;19.67;;;;;24.54;53.85;100592.56;4951730;28;45488;-70
2023/06/13 05:36:23;;;;;;;;;21.33;18.67;;;;;24.59;53.31;100592.28;4943316;28;45447;-70
2023/06/13 05:38:48;;;;;;;;;19.00;16.00;;;;;24.61;53.61;100593.06;4941112;28;45491;-70
2023/06/13 05:41:14;;;;;;;;;20.67;19.33;;;;;24.64;53.17;100579.50;4942235;28;45370;-68
2023/06/13 05:43:40;;;;;;;;;18.33;16.00;;;;;24.67;53.56;100581.97;4957059;28;45231;-69
2023/06/13 05:46:05;;;;;;;;;19.33;17.67;;;;;24.66;53.12;100574.91;4939435;28;45392;-69
2023/06/13 05:48:31;;;;;;;;;21.00;20.67;;;;;24.72;53.22;100580.75;4936118;28;47471;-70
2023/06/13 05:51:03;;;;;;;;;20.67;19.33;;;;;24.73;53.06;100582.47;4937496;28;45412;-71
2023/06/13 05:53:31;;;;;;;;;22.33;21.67;;;;;24.76;52.69;100581.44;4953623;28;45338;-72
2023/06/13 05:55:57;;;;;;;;;18.00;18.00;;;;;24.81;52.40;100583.84;4954939;28;45620;-71
2023/06/13 05:58:22;;;;;;;;;20.33;19.67;;;;;24.83;52.50;100582.78;4937641;28;46404;-70
2023/06/13 06:00:48;;;;;;;;;21.33;20.00;;;;;24.93;51.99;100594.66;4937463;28;45429;-70
2023/06/13 06:03:14;;;;;;;;;19.67;18.00;;;;;24.97;52.01;100604.25;4936181;28;45438;-70
2023/06/13 06:05:39;;;;;;;;;23.67;20.00;;;;;24.82;51.95;100572.16;4951995;28;45422;-72
2023/06/13 06:08:08;;;;;;;;;22.33;18.00;;;;;25.02;51.76;100589.72;4953036;28;46562;-71
2023/06/13 06:10:34;;;;;;;;;23.00;22.67;;;;;25.09;51.18;100591.09;4939975;28;45465;-69
2023/06/13 06:13:00;;;;;;;;;23.00;21.00;;;;;25.15;51.15;100588.00;4941553;28;45615;-69
2023/06/13 06:15:25;;;;;;;;;22.67;20.67;;;;;25.14;51.13;100578.25;4941827;28;45661;-71
2023/06/13 06:17:51;;;;;;;;;18.00;17.67;;;;;25.22;50.96;100572.44;4941397;28;45883;-69
2023/06/13 06:20:17;;;;;;;;;19.00;17.00;;;;;25.28;50.99;100569.41;4940753;28;45360;-67
2023/06/13 06:22:42;;;;;;;;;25.67;20.33;;;;;25.38;50.09;100567.88;4937497;28;45373;-68
2023/06/13 06:25:18;;;;;;;;;22.33;20.00;;;;;25.44;50.35;100574.66;4938006;28;45401;-69
2023/06/13 06:27:44;;;;;;;;;23.00;20.67;;;;;25.48;50.57;100573.50;4938703;28;45507;-69
2023/06/13 06:30:10;;;;;;;;;21.67;19.00;;;;;25.52;50.48;100572.38;4935363;28;45844;-70
2023/06/13 06:32:35;;;;;;;;;24.67;23.33;;;;;25.48;50.24;100570.81;4936687;28;45391;-68
2023/06/13 06:35:03;;;;;;;;;22.33;22.33;;;;;25.48;50.15;100576.19;4937506;28;45495;-68
2023/06/13 06:37:29;;;;;;;;;29.00;25.00;;;;;25.36;50.19;100557.22;4938095;28;45493;-69
2023/06/13 06:39:54;;;;;;;;;24.67;23.33;;;;;25.57;49.92;100579.16;4939677;28;45444;-68
2023/06/13 06:42:23;;;;;;;;;22.67;19.67;;;;;25.70;49.84;100584.63;4941460;28;45444;-73
2023/06/13 06:44:50;;;;;;;;;24.67;21.33;;;;;25.83;49.06;100583.81;4941281;28;45340;-70
2023/06/13 06:47:15;;;;;;;;;27.67;23.67;;;;;25.69;46.62;100558.72;4941055;28;46134;-68
2023/06/13 06:49:41;;;;;;;;;24.67;24.33;;;;;25.72;46.67;100574.66;4940412;28;45442;-69
2023/06/13 06:52:07;;;;;;;;;23.00;21.67;;;;;25.75;46.55;100566.41;4937231;28;45417;-70
2023/06/13 06:54:33;;;;;;;;;18.67;18.67;;;;;25.79;46.20;100550.94;4937058;28;45569;-69
2023/06/13 06:56:59;;;;;;;;;18.33;17.33;;;;;25.91;46.09;100560.94;4937589;28;45924;-69
2023/06/13 06:59:25;;;;;;;;;18.00;17.67;;;;;25.93;43.95;100568.88;4937357;28;45664;-70
2023/06/13 07:01:51;;;;;;;;;25.67;24.00;;;;;25.91;43.37;100562.75;4937360;28;45506;-70
2023/06/13 07:04:17;;;;;;;;;20.00;18.33;;;;;25.93;43.94;100568.88;4937683;28;45389;-69
2023/06/13 07:06:43;;;;;;;;;21.00;17.00;;;;;25.99;43.38;100563.97;4937437;28;45335;-69
2023/06/13 07:09:11;;;;;;;;;20.67;19.33;;;;;26.00;43.66;100564.84;4936804;28;45380;-70
2023/06/13 07:11:37;;;;;;;;;20.00;19.67;;;;;26.05;44.55;100564.53;4939107;28;45392;-71
2023/06/13 07:14:07;;;;;;;;;22.00;21.33;;;;;26.08;43.20;100561.63;4942048;28;45437;-72
2023/06/13 07:17:20;;;;;;;;;25.00;24.00;;;;;26.14;42.24;100566.63;4941611;28;46282;-69
2023/06/13 07:19:47;;;;;;;;;25.33;24.33;;;;;26.07;41.99;100573.34;4918681;28;45543;-69
2023/06/13 07:22:14;;;;;;;;;24.33;22.67;;;;;25.94;42.72;100567.94;4934657;28;45440;-70
2023/06/13 07:24:43;;;;;;;;;23.67;21.67;;;;;25.91;43.81;100570.78;4938481;28;45572;-71
2023/06/13 07:27:10;;;;;;;;;22.67;20.00;;;;;25.91;43.13;100570.78;4940404;28;46712;-73
2023/06/13 07:29:36;;;;;;;;;27.67;23.33;;;;;26.01;43.46;100571.94;4938054;28;45612;-70
2023/06/13 07:32:02;;;;;;;;;31.33;25.67;;;;;26.08;42.92;100581.31;4935615;28;45590;-70
2023/06/13 07:34:29;;;;;;;;;24.67;22.00;;;;;26.03;43.70;100578.06;4950294;28;45513;-70
2023/06/13 07:36:55;;;;;;;;;25.67;24.33;;;;;26.07;43.79;100581.41;4936175;28;46707;-70
2023/06/13 07:39:20;;;;;;;;;23.00;22.00;;;;;26.13;43.53;100581.88;4935801;28;45485;-70
2023/06/13 07:41:50;;;;;;;;;18.33;18.33;;;;;26.23;43.65;100582.13;4934783;28;45466;-68
2023/06/13 07:44:15;;;;;;;;;14.67;12.33;;;;;26.26;43.38;100565.81;4935971;28;45568;-72
2023/06/13 07:46:41;;;;;;;;;19.67;16.33;;;;;26.41;43.27;100567.47;4935674;28;45885;-72
2023/06/13 07:49:07;;;;;;;;;17.67;16.67;;;;;26.52;43.12;100557.84;4935879;28;45690;-71
2023/06/13 07:51:32;;;;;;;;;18.67;18.00;;;;;26.65;42.64;100565.00;4935644;28;45558;-69
2023/06/13 07:53:58;;;;;;;;;18.67;17.33;;;;;26.82;42.60;100571.91;4936104;28;45689;-71
2023/06/13 07:56:24;;;;;;;;;24.00;21.00;;;;;26.82;42.36;100555.78;4935147;28;46434;-73
2023/06/13 07:58:49;;;;;;;;;18.00;16.33;;;;;26.95;41.81;100566.53;4952664;28;45815;-70
2023/06/13 08:01:15;;;;;;;;;20.67;18.67;;;;;27.04;41.22;100567.72;4937075;28;45451;-69
2023/06/13 08:03:41;;;;;;;;;23.33;20.67;;;;;26.90;40.22;100552.53;4933179;28;45542;-70
2023/06/13 08:06:08;;;;;;;;;22.00;21.00;;;;;26.93;40.85;100560.38;4937261;28;46137;-71
2023/06/13 08:08:33;;;;;;;;;24.00;21.33;;;;;26.98;41.40;100566.34;4948991;28;45730;-71
2023/06/13 08:10:59;;;;;;;;;22.67;18.33;;;;;27.08;41.43;100567.41;4934807;28;45457;-72
2023/06/13 08:13:25;;;;;;;;;21.33;19.33;;;;;27.17;41.46;100565.91;4934299;28;45465;-73
2023/06/13 08:15:50;;;;;;;;;19.00;18.33;;;;;27.27;41.52;100572.38;4936868;28;46067;-71
2023/06/13 08:18:16;;;;;;;;;18.33;18.33;;;;;27.30;41.21;100560.53;4937148;28;45467;-72
2023/06/13 08:20:42;;;;;;;;;21.67;20.67;;;;;27.34;40.72;100551.28;4936779;28;45974;-69
2023/06/13 08:23:07;;;;;;;;;20.00;20.00;;;;;27.40;39.87;100563.44;4934647;28;45651;-70
2023/06/13 08:25:33;;;;;;;;;18.50;15.75;;;;;27.46;39.21;100560.31;4939944;28;45472;-72
2023/06/13 08:27:58;;;;;;;;;16.50;15.25;;;;;27.48;39.07;100556.56;4938756;28;46363;-72
2023/06/13 08:30:24;;;;;;;;;18.00;18.00;;;;;27.61;39.28;100559.19;4938771;28;45444;-70
2023/06/13 08:32:52;;;;;;;;;17.75;17.25;;;;;27.63;39.02;100551.88;4936487;28;45761;-70
2023/06/13 08:35:19;;;;;;;;;23.75;18.00;;;;;27.70;38.04;100552.31;4934894;28;46108;-70
2023/06/13 08:37:44;;;;;;;;;21.67;19.67;;;;;27.68;37.86;100541.66;4950559;28;45385;-69
2023/06/13 08:40:12;;;;;;;;;20.00;18.25;;;;;27.80;37.87;100549.81;4949981;28;45451;-69
2023/06/13 08:42:39;;;;;;;;;23.67;23.67;;;;;27.86;37.09;100552.94;4935626;28;45491;-69
2023/06/13 08:45:08;;;;;;;;;23.00;20.67;;;;;27.81;37.48;100538.06;4935542;28;46146;-69
2023/06/13 08:47:34;;;;;;;;;20.33;19.00;;;;;27.92;37.51;100549.78;4935123;28;45310;-68
2023/06/13 08:50:00;;;;;;;;;29.33;22.00;;;;;27.95;36.06;100542.44;4933704;28;45331;-69
2023/06/13 08:52:32;;;;;;;;;22.67;20.33;;;;;27.92;36.30;100544.41;4934326;28;45603;-72
2023/06/13 08:55:00;;;;;;;;;25.33;22.67;;;;;27.94;36.39;100541.59;4936735;28;47195;-69
2023/06/13 08:57:27;;;;;;;;;22.00;21.33;;;;;27.95;36.94;100535.22;4939126;28;45477;-67
2023/06/13 08:59:53;;;;;;;;;25.00;24.33;;;;;28.02;37.13;100546.41;4954069;28;45389;-72
2023/06/13 09:02:20;;;;;;;;;22.67;22.00;;;;;28.01;37.39;100547.41;4939374;28;45327;-68
2023/06/13 09:04:48;;;;;;;;;18.25;17.75;;;;;28.03;37.33;100542.75;4938338;28;45733;-69
2023/06/13 09:07:16;;;;;;;;;21.00;19.50;;;;;28.10;37.07;100542.19;4934623;28;45751;-71
2023/06/13 09:09:42;;;;;;;;;26.67;23.00;;;;;28.15;37.03;100551.75;4940078;28;45537;-73
2023/06/13 09:12:12;;;;;;;;;23.33;23.00;;;;;28.20;36.94;100554.97;4942846;28;45471;-70
2023/06/13 09:14:39;;;;;;;;;23.67;22.33;;;;;28.26;36.51;100559.88;4942505;28;46449;-72
2023/06/13 09:17:05;;;;;;;;;27.00;23.00;;;;;28.25;36.01;100561.72;4938451;28;45534;-69
2023/06/13 09:19:31;;;;;;;;;22.33;22.33;;;;;28.24;36.45;100549.22;4938608;28;45507;-70
2023/06/13 09:21:57;;;;;;;;;23.50;19.25;;;;;28.28;36.35;100548.00;4953413;28;45509;-70
2023/06/13 09:24:26;;;;;;;;;23.00;21.25;;;;;28.33;35.45;100551.25;4938094;28;45455;-69
2023/06/13 09:26:52;;;;;;;;;23.75;21.50;;;;;28.39;35.00;100552.59;4938659;28;45496;-69
2023/06/13 09:29:17;;;;;;;;;27.33;25.00;;;;;28.20;34.13;100542.34;4939030;28;45492;-69
2023/06/13 09:31:43;;;;;;;;;25.00;22.67;;;;;28.12;34.58;100555.53;4937966;28;45315;-72
2023/06/13 09:34:15;;;;;;;;;20.25;20.00;;;;;28.03;35.07;100532.84;4938775;28;46581;-72
2023/06/13 09:36:41;;;;;;;;;24.33;23.67;;;;;28.12;35.19;100539.38;4940592;28;45446;-69
2023/06/13 09:39:07;;;;;;;;;22.50;21.50;;;;;28.16;34.99;100548.06;4952634;28;45582;-69
2023/06/13 09:41:33;;;;;;;;;22.25;19.75;;;;;28.19;35.08;100546.03;4940177;28;45774;-69
2023/06/13 09:44:05;;;;;;;;;22.67;22.67;;;;;28.29;34.82;100552.44;4940372;28;47865;-69
2023/06/13 09:46:37;;;;;;;;;24.00;22.00;;;;;28.36;35.09;100555.53;4941824;28;45738;-70
2023/06/13 09:49:06;;;;;;;;;24.67;22.67;;;;;28.41;34.78;100550.66;4955375;28;45395;-69
2023/06/13 09:51:32;;;;;;;;;23.33;23.33;;;;;28.41;34.42;100553.34;4937899;28;45329;-71
2023/06/13 09:54:00;;;;;;;;;27.33;23.33;;;;;28.31;35.61;100555.88;4940208;28;45998;-70
2023/06/13 09:56:26;;;;;;;;;30.00;25.67;;;;;28.07;35.01;100506.53;4938470;28;45415;-69
2023/06/13 09:58:51;;;;;;;;;23.33;23.00;;;;;28.10;34.77;100514.41;4937886;28;45538;-71
2023/06/13 10:01:18;;;;;;;;;23.33;22.33;;;;;28.29;34.93;100559.66;4941466;28;45528;-70
2023/06/13 10:03:45;;;;;;;;;21.33;20.33;;;;;28.31;34.35;100553.19;4935977;28;45733;-72
2023/06/13 10:06:11;;;;;;;;;29.67;25.67;;;;;28.25;34.50;100550.09;4939130;28;45526;-71
2023/06/13 10:08:37;;;;;;;;;26.67;24.33;;;;;28.26;35.49;100551.78;4938988;28;45401;-70
2023/06/13 10:11:08;;;;;;;;;24.67;22.33;;;;;28.25;36.05;100542.84;4937396;28;45351;-70
2023/06/13 10:13:44;;;;;;;;;28.67;23.00;;;;;28.38;35.71;100550.88;4936483;28;46398;-70
2023/06/13 10:16:13;;;;;;;;;22.67;22.33;;;;;28.45;36.89;100551.25;4939176;28;45492;-68
2023/06/13 10:18:41;;;;;;;;;27.33;23.33;;;;;28.51;35.88;100545.44;4936669;28;45700;-73
2023/06/13 10:21:10;;;;;;;;;26.00;23.67;;;;;28.50;36.10;100550.00;4940315;28;45460;-73
2023/06/13 10:23:43;;;;;;;;;24.33;21.33;;;;;28.63;35.98;100549.03;4937580;28;45949;-71
2023/06/13 10:26:15;;;;;;;;;28.33;26.33;;;;;28.64;35.96;100535.47;4937154;28;45547;-70
2023/06/13 10:28:40;;;;;;;;;28.00;26.67;;;;;28.83;35.10;100547.50;4938491;28;45378;-69
2023/06/13 10:31:26;;;;;;;;;22.67;20.33;;;;;28.89;34.88;100560.50;4956164;28;45536;-70
2023/06/13 10:34:10;;;;;;;;;25.67;24.33;;;;;28.99;34.55;100558.78;4940815;28;45428;-68
2023/06/13 10:37:30;;;;;;;;;26.00;23.75;;;;;29.02;32.60;100546.91;4935527;28;45515;-68
2023/06/13 10:40:34;;;;;;;;;22.00;22.00;;;;;29.04;33.02;100553.03;4920565;28;45544;-68
2023/06/13 10:43:28;;;;;;;;;27.67;27.00;;;;;29.01;32.72;100539.81;4904402;28;45445;-68
2023/06/13 10:45:58;;;;;;;;;20.50;20.25;;;;;29.11;33.24;100530.91;4938290;28;45409;-68
2023/06/13 10:48:36;;;;;;;;;20.50;20.00;;;;;29.23;32.46;100542.53;4948064;28;45720;-67
2023/06/13 10:51:02;;;;;;;;;24.25;21.75;;;;;29.30;31.82;100542.91;4921657;28;45429;-67
2023/06/13 10:53:28;;;;;;;;;23.50;21.00;;;;;29.32;32.25;100541.81;4921554;28;45373;-67
2023/06/13 10:56:04;;;;;;;;;22.25;21.25;;;;;29.39;33.12;100553.84;4921531;28;45481;-67
2023/06/13 10:58:30;;;;;;;;;22.25;21.25;;;;;29.48;31.15;100548.69;4919045;28;45374;-69
2023/06/13 11:00:56;;;;;;;;;22.33;22.33;;;;;29.43;31.18;100538.28;4947710;28;45676;-70
2023/06/13 11:03:30;;;;;;;;;25.75;22.25;;;;;29.56;31.96;100533.59;4936203;28;45505;-68
2023/06/13 11:05:55;;;;;;;;;25.67;25.67;;;;;29.62;31.74;100542.19;4951490;28;47290;-68
2023/06/13 11:08:24;;;;;;;;;24.25;21.50;;;;;29.66;29.35;100538.25;4936230;28;45532;-69
2023/06/13 11:10:51;;;;;;;;;22.00;18.00;;;;;29.52;29.83;100531.25;4950789;28;45584;-68
2023/06/13 11:13:24;;;;;;;;;23.75;23.00;;;;;29.47;29.24;100534.34;4936682;28;45829;-67
2023/06/13 11:15:54;;;;;;;;;21.75;20.00;;;;;29.42;30.34;100533.00;4936121;28;45924;-68